Timeline UpdatesTrip UpdatesNews PostsPvt PostsTravel TipsAdmin PostsConv PostsFollowed PostsChat RequestsBlog PostsPNR Posts

Disclaimer
Search
 
 
Mon Apr 21, 2014 17:41:47 ISTHomeTrainsΣChainsAtlasPNRForumGalleryNewsFAQTripsMembersLoginFeedback
No Recent News for this Train
Other Trains in the News **new
Latest...
.
Mon Apr 23, 2012 (04:35AM)
⇐ Return Journey: Train# 11049

11050/Kolhapur-Ahmedabad Express

Jul 02 2013 (9:48PM)
Change Departure Station:
Change Arrival Station:
Post a Train Travel TipPost a Train Travel Tip **new
Post a Comment/Question/Picture/VideoPost a Comment/Question/Picture/Video
Pantry/Catering
✕ NO Pantry Car
✓ Catering Avbl
RSA - Rake Sharing
12147/48
Rake/Coach Composition
Loco-SLR-GS-GS-S1-S2-S3-S4-S5-S6-S7-S8-S9-A1-B1-B2-GS-GS-SLR
Loco
KOP-PUNE=> PUNE WDM-3A PUNE-ADI=> BL WCAM-1
News    PNR    Forum    Time-Table    Availability    Fare Chart    Map    Arr/Dep History    Trips    Gallery    ΣChains    X/O    Timeline    
Travel Time: 11h 55m    12 halts    Distance: 630 km    Avg Speed: 52 km/hr
Type: Mail/Express
Zone: CR/Central
Departs @ 19:50 (Avg 2m late)
Platform# 3
      S
Pune Junction/PUNE 
Arrives @ 07:45 +1 night (Avg 2m late)
Platform# ???
S      
Ahmedabad Junction/ADI 

12 halts. 125 intermediate Stations between Pune Junction and Ahmedabad Junction

Hide intermediate Stations  

#CodeStation NameX/OArrivesAvgDepartsAvgHaltPFDay#KmSpeedElevZoneAddress
1KOPKolhapur CSMT (3)  -12:50+231-326.757563mCRKolhapur 416001, Maharashtra
1.1GRMTGur Market  12:54-12:54-  1-323.1 57550mCRKolhapur, Maharashtra
1.2VVValivade  12:57-12:57-  1-320.1 57554mCRValivade, Maharashtra
1.3RKDRukadi (1)X  13:04-13:04-  1-313.5 57544mCRKolhapur, Maharashtra
1.4HTKHatkanagale (2)  13:12-13:12-  1-306.0 57591mCRDist. Kolhapur 416115, Maharashtra
1.5NMGTNimshirgaon Tamdalge  13:20-13:20-  1-298.9 57593mCRMiraj Rd, Maharashtra
1.6JSPJayasingpur  13:27-13:27-  1-291.5 57550mCRJaysingpur, Maharashtra
2MRJMiraj Junction (6)  13:40+813:45+145m11-279.637554mCRMiraj 416410, Maharashtra
2.1VRBVishrambag  13:54-13:54-  1-274.2 370mCRSangli, Maharashtra
3SLISangli (3)  13:57+1614:00+163m11-272.363559mCRSangli, Maharashtra
3.1MDVRMadhavnagar  14:03-14:03-  1-268.8 63550mCRSangli, Maharashtra
3.2NDENandre  14:12-14:12-  1-260.0 63560mCRSangli, Maharashtra
3.3BVQBhilavdi  14:18-14:18-  1-253.2 63570mCRSangli, Maharashtra
3.4ANQAmnapur  14:27-14:27-  1-244.0 63556mCRSangli, Maharashtra
3.5KOVKirloskarvadi  14:31-14:31-  1-239.4 63570mCRSangli, Maharashtra
3.6TKRTakari  14:38-14:38-  1-231.8 63558mCRSangli, Maharashtra
3.7BVNRBhavani Nagar  14:44-14:44-  1-225.6 63578mCRTasgaon Rd, Maharashtra
3.8SNEShenoli  14:52-14:52-  1-217.5 63587mCRShenoli Station, Maharashtra
3.9KRDKarad (3)X  15:04-15:04-  1-204.4 63597mCRDist- Satara., Maharashtra
3.10SIWShirravde  15:13-15:13-  1-195.7 63594mCRMasur Rd, Maharashtra
3.11MSRMasurX  15:17-15:17-  1-190.6 63610mCRSatara, Maharashtra
3.12TAZTargaon  15:30-15:30-  1-177.8 63617mCRSatara, Maharashtra
3.13RMPRahimatpur  15:40-15:40-  1-166.7 63626mCRSatara, Maharashtra
3.14KRGKoregaon  15:50-15:50-  1-156.4 63658mCRKoregaon, Maharashtra
4STRSatara (3)X  16:00+1616:03+193m11-145.740637mCRSatara, Maharashtra
4.1JSVJarandeshwar  16:14-16:14-  1-138.1 40678mCRSH 61, Maharashtra
4.2PLVPalsi  16:28-16:28-  1-129.1 40751mCRWathar-Koregaon Rd, Maharashtra
4.3WTRWathar  16:42-16:42-  1-119.7 40799mCRSatara, Maharashtra
4.4AKIAdarki (1)  16:57-16:57-  1-109.6 40731mCRSatara Dist., Maharashtra
4.5SLPSalpa  17:09-17:09-  1-101.5 40667mCRSH 61, Maharashtra
4.6LNNLonand  17:22-17:22-  1-92.4 40594mCRJn Point Daund /Miraj /Pune, Maharashtra
4.7NIRANira (1)  17:34-17:34-  1-84.7 40553mCRDist. Pune 412102, Maharashtra
4.8WLHValha (1)X  17:49-17:49-  1-74.4 40623mCRValha, Maharashtra
4.9DNJDaundaj (1)  18:02-18:02-  1-66.0 40692mCRIndraprastha Rd, Maharashtra
4.10JJRJejuri (1)X  18:13-18:13-  1-58.1 40697mCRDist. Pune 412303, Maharashtra
4.11RJWRajevadi  18:32-18:32-  1-46.0 40727mCRMalshiras Rd, Maharashtra
4.12ABLEAmbale  18:38-18:38-  1-41.3 40729mCRMalshiras Rd, Maharashtra
4.13SHIVShindawane (1)  18:53-18:53-  1-31.8 40650mCRPune 412202, Maharashtra
4.14ALNAlandi  19:05-19:05-  1-23.4 40583mCRRamdara Rd, Maharashtra
4.15FSGPhursungi (1)  19:15-19:15-  1-16.7 40582mCRDist Pune 412308, Maharashtra
4.16SSVSasvad Road (1)  19:23-19:23-  1-11.7 40587mCRPune 412308, Maharashtra
4.17GITGhorpuri Transh  19:36-19:36-  1-2.7 40557mCRPune, Maharashtra
4.18GPRGhorpuri (2)  19:37-19:37-  1-2.3 40558mCRPune, Maharashtra
5PUNE»Pune Junction (6)»19:40+019:50+210m310.072556mCRPune 411001, Maharashtra
5.1SVJRShivajinagar (2)  19:52-19:52-  12.4 72549mCRPune 411005, Maharashtra
5.2KKKhadki (3)  19:55-19:55-  16.0 72562mCRPune 411003, Maharashtra
5.3DAPDDapodi (2)X  19:57-19:57-  18.1 72558mCRPune 411012, Maharashtra
5.4KSWDKasarwadi (2)X  20:00-20:00-  111.5 72558mCRPune 411034, Maharashtra
5.5PMPPimpri (2)  20:02-20:02-  114.1 72570mCRPune 411018, Maharashtra
5.6CCHChinchwad (4)  20:04-20:04-  116.3 72573mCRPune 411033, Maharashtra
5.7AKRDAkurdi (2)  20:06-20:06-  119.5 72583mCRPune 411035, Maharashtra
5.8DEHRDehu Road (4)X  20:10-20:10-  124.5 72611mCRDehu 412101, Maharashtra
5.9BGWBegdewadi (2)  20:13-20:13-  128.0 72594mCRBegdewadi, Maharashtra
5.10BGWIBegdaewadi  20:13-20:13-  128.1 72594mCRTalegaon, Maharashtra
5.11SLRWShelarwadi (2)  20:14-20:14-  128.3 72594mCRShelarwadi Dist. Pune, Maharashtra
5.12GRWDGhorawadi (2)  20:16-20:16-  131.1 72596mCRGhorawadi, Maharashtra
5.13TGNTalegaon (2)  20:18-20:18-  134.1 72619mCRTalegaon Dabhade 410501, Maharashtra
5.14VDNVadgaon (2)  20:22-20:22-  138.1 72623mCRVadgaon, Maharashtra
5.15KNHEKanhe (2)  20:26-20:26-  143.2 72626mCRKanhe, Maharashtra
5.16KMSTKamshet (2)X  20:30-20:30-  147.8 72607mCRDist. Pune 410405, Maharashtra
5.17MVLMalavli (2)  20:37-20:37-  156.5 72616mCRMalavli 410405, Maharashtra
6LNLLonavala (3)  20:43+420:45+42m2163.640623mCRLonavala 410401, Maharashtra
6.1KADKhandala (3)  20:51-20:51-  167.4 40545mCR410301, Maharashtra
6.2MHLCMonkey Hill (2)X  20:58-20:58-  172.6 40414mCRKhandala, Maharashtra
6.3NAGCNagargali  21:04-21:04-  176.4 40354mCRKhopoli, Maharashtra
6.4NNCNNagnath Cabin (1)  21:09-21:09-  179.5 40289mCRDolavali Khopoli (Chinchavali Marge), Maharashtra
6.5TKWThakurvadi  21:09-21:09-  179.9 40281mCRKhandala, Maharashtra
6.6PDIPalasdhari (4)  21:24-21:24-  189.4 4067mCRDist Raigad, Maharashtra
7KJTKarjat Junction (4)  21:28+821:30+82m2192.35657mCRKarjat, Maharashtra
7.1BVSBhivpuri Road (2)  21:37-21:37-  199.2 5650mCRBhivpuri Road, Maharashtra
7.2NRLNeral Junction (2)  21:45-21:45-  1105.9 5642mCRNeral-410101 Dist. Raigad, Maharashtra
7.3SHLUShelu (2)X  21:49-21:49-  1110.0 5640mCRShelu, Maharashtra
7.4VGIVangani (2)  21:53-21:53-  1114.0 5642mCRVangani, Maharashtra
7.5BUDBadlapur (3)X  22:05-22:05-  1124.8 5618mCRBadlapur-421 503, Maharashtra
7.6ABHAmbernath (3)X  22:13-22:13-  1132.5 5623mCRMaharashtra 421502, Maharashtra
7.7ULNRUlhasnagar (2)  22:15-22:15-  1134.9 5614mCRUlhasnagar Camp No.3, Maharashtra
7.8VLDIVithalwadi (2)X  22:17-22:17-  1136.8 5613mCRVitthalwadi, Maharashtra
8KYNKalyan Junction (8)X  22:20+422:25+35m51139.14710mCRKalyan 421301, Maharashtra
8.1THKThakurli (2)  22:30-22:30-  1142.7 4714mCRThakurli, Maharashtra
8.2DIDombivli (5)  22:31-22:31-  1144.2 4711mCRDombivli, Maharashtra
8.3DCTLDombivli Ctl  22:36-22:36-  1147.9 472mCRDombivli, Maharashtra
8.4KOPRKopar (4)X  22:38-22:38-  1149.2 470mCRKopar, Maharashtra
9BIRDBhiwandi Road (4)  22:48+622:50+72m--1157.13026mCRBhiwandi, Maharashtra
9.1KHBVKharbav (4)  23:06-23:06-  1165.3 308mCRThane, Maharashtra
9.2KARDKaman Road  23:23-23:23-  1173.5 3019mCRSection 2, Maharashtra
9.3JCNRJuchandraX  23:34-23:34-  1179.1 304mCRNH 8, Maharashtra
10BSRVasai Road (7)  23:45+023:50+05m--1184.4647mWRThane-401202, Maharashtra
10.1NSPNallasopara (4)  23:54-23:54-  1188.6 645mWRNallasopara station Rd, Maharashtra
10.2VRVirar (8)X  23:58-23:58-  1192.8 646mWRThane, Maharashtra
10.3VTNVaitarna (2)  00:06-00:06-  2201.3 643mWRThane, Maharashtra
10.4SAHSaphale (2)  00:13-00:13-  2209.1 648mWRThane, Maharashtra
10.5KLVKelve Road (3)  00:19-00:19-  2215.6 6410mWRThane, Maharashtra
10.6PLGPalghar (3)  00:27-00:27-  2224.0 6419mWRPalghar, Maharashtra
10.7UOIUmroli (2)  00:33-00:33-  2230.4 648mWRBoisar, Maharashtra
10.8BORBoisar (3)  00:38-00:38-  2235.2 6417mWRBoisar Tel.no-02525-266626, Maharashtra
10.9VGNVangaon (3)O  00:47-00:47-  2244.7 6411mWRThane, Maharashtra
10.10DRDDahanu Road (5)XO  00:58-00:58-  2257.0 6412mWRDahanu, Maharashtra
10.11GVDGholvad (4)X  01:09-01:09-  2268.1 6414mWRGholvad, Maharashtra
10.12BRRDBordi Road (2)  01:13-01:13-  2273.0 6417mWRBordi, Maharashtra
10.13UBRUmbargam Road (3)X  01:17-01:17-  2277.3 6430mWRUmbergaon, Gujarat
10.14SJNSanjan (3)  01:22-01:22-  2282.6 6422mWRSanjan, Gujarat
10.15BLDBhilad (3)  01:33-01:33-  2294.2 6433mWRBhilad, Gujarat
10.16KEBKarambeli (2)  01:38-01:38-  2299.0 6429mWRNational Highway 8, Gujarat
11VAPIVapi (3)X  01:44+601:46+62m--2305.55227mWRVapi, Gujarat
11.1BAGDBagwada (2)X  01:54-01:54-  2312.2 5222mWRNH8, Gujarat
11.2UVDUdvada (3)  01:57-01:57-  2315.1 5218mWRUdvada, Gujarat
11.3PADPardi (3)X  02:04-02:04-  2321.0 5219mWRValsad, Gujarat
11.4ATULAtul (3)X  02:09-02:09-  2325.0 5222mWRValsad, Gujarat
11.5BLValsad (3)X  02:17-02:17-  2331.7 5215mWRValsad, Gujarat
11.6DGIDungri (3)  02:27-02:27-  2340.6 5220mWRNH 8, Gujarat
11.7JRSJoravasan (2)X  02:33-02:33-  2345.7 5215mWRJoravasan, Gujarat
11.8BIMBilimora Junction (4)X  02:37-02:37-  2349.6 5211mWRBilimora, Gujarat
11.9AMLAmalsad (3)  02:44-02:44-  2355.2 5212mWRAmalsad, Gujarat
11.10ACLAncheli (2)  02:48-02:48-  2359.0 5220mWRNavsari, Gujarat
11.11VDHVedchha (3)X  02:52-02:52-  2362.4 5213mWRNavsari, Gujarat
11.12HXRHansapore (2)O  02:57-02:57-  2366.2 5215mWRHansapore, Gujarat
11.13GNSTGandhi Smriti (2)X  02:59-02:59-  2367.8 5216mWRGandhi Smriti Navsari, Gujarat
12NVSNavsari (3)XO  03:02+303:04+32m--2370.83914mWRNavsari, Gujarat
12.1MRLMaroli (3)  03:17-03:17-  2379.3 3915mWRMaroli, Gujarat
12.2SCHSachin (3)  03:27-03:27-  2385.9 3911mWRKansad Road Sachin, Gujarat
12.3BHETBhestan (2)X  03:36-03:36-  2391.6 3913mWRSurat, Gujarat
12.4UDNUdhna Junction (3)X  03:44-03:44-  2396.4 3916mWRUdhna 394210, Gujarat
13STSurat (4)X  03:50+103:55+25m12400.47619mWRSurat 395001, Gujarat
13.1URNUtran (3)  03:58-03:58-  2404.3 7615mWRSurat, Gujarat
13.2KSEKosad (2)  04:01-04:01-  2407.5 7617mWRSurat, Gujarat
13.3GTXGothangam (2)  04:04-04:04-  2411.2 7619mWRAmroli Sayan Rd, Gujarat
13.4SYNSayan (3)  04:06-04:06-  2414.1 7621mWRSayan Satellite town, Gujarat
13.5KDSDKudsad (2)  04:12-04:12-  2421.2 7618mWRNH 8, Gujarat
13.6KIMKim (2)X  04:14-04:14-  2424.0 7618mWRNH 8, Gujarat
13.7KSBKosamba Junction (3)  04:20-04:20-  2431.8 7630mWRKosamba, Gujarat
13.8HATHathuran (2)  04:23-04:23-  2436.2 7632mWRKosamba, Gujarat
13.9PAOPanoli (3)X  04:26-04:26-  2440.0 7629mWRPanoli, Gujarat
13.10SNJLSanjali (2)  04:30-04:30-  2444.3 7623mWRPanoli, Gujarat
13.11AKVAnkleshwar Junction (4)X  04:35-04:35-  2450.4 7619mWRAnkleshwar, Gujarat
14BHBharuch Junction (5)  04:42+604:44+62m32459.76919mWRBharuch, Gujarat
14.1CVJChavaj (2)X  04:48-04:48-  2464.7 6920mWRBharuch, Gujarat
14.2NIUNabipur (3)  04:54-04:54-  2471.8 6924mWRNabipur, Gujarat
14.3VREVarediya (4)X  05:00-05:00-  2478.5 6921mWRNH 8, Gujarat
14.4PLJPalej (4)  05:06-05:06-  2485.1 6929mWRPalej, Gujarat
14.5LKDLakodara (4)  05:12-05:12-  2492.4 6926mWRNH 8, Gujarat
14.6MYGLMiyagam Karjan Junction NG  05:19-05:19-  2500.3 690mWRKarjan, Gujarat
14.7MYGMiyagam Karjan (2)X  05:19-05:19-  2500.4 6929mWRKarjan, Gujarat
14.8KSPRKashipura Sarar (2)  05:26-05:26-  2508.2 6926mWRGIDC Industrial Area, Gujarat
14.9ITAItola (4)X  05:29-05:29-  2512.0 6927mWRNational Highway 8, Gujarat
14.10VRMVarnama (2)  05:33-05:33-  2515.9 6928mWRVadodara, Gujarat
14.11MPRMakarpura (4)  05:37-05:37-  2521.5 6930mWRVadodara, Gujarat
14.12VSVishvamitri (4)X  05:42-05:42-  2527.2 6930mWRVadodara, Gujarat
15BRCVadodara Junction (7)  05:45+805:50+85m22530.26336mWRVadodara, Gujarat
15.1BRGYVadodara D CabinO  05:51-05:51-  2530.8 6336mWRVadodara, Gujarat
15.2BJWBajva (3)  05:57-05:57-  2537.5 6338mWRVadodara, Gujarat
15.3KRCAKarachiya Yard  05:59-05:59-  2539.4 6339mWRVadodara, Gujarat
15.4RNORanoli (2)  06:00-06:00-  2541.2 6339mWRVadodara District, Gujarat
15.5NDRNandesari (2)X  06:04-06:04-  2545.4 6342mWRNandesari, Gujarat
15.6VDAVasad Junction (3)X  06:09-06:09-  2550.4 6340mWRVasad, Gujarat
15.7ADDAdas Road (4)  06:14-06:14-  2555.0 6342mWRNational Highway 8, Gujarat
15.8VXDVadod (3)X  06:17-06:17-  2559.1 6344mWRAnand District, Gujarat
16ANNDAnand Junction (6)X  06:24+706:26+72m22566.06244mWRAnand, Gujarat
16.1KBRVKanjari Boriyavi Junction (4)  06:33-06:33-  2573.4 6239mWRKanjari, Gujarat
16.2UTDUtarsanda (4)  06:39-06:39-  2579.0 6240mWRUttarsanda, Gujarat
17NDNadiad Junction (4)X  06:44+606:46+62m22584.54637mWRNadiad, Gujarat
17.1GTEGothaj (2)X  06:58-06:58-  2593.7 4632mWRState Highway 3, Gujarat
17.2MHDMahemdavad Kheda Road (4)  07:09-07:09-  2602.0 4637mWRMahemdavad, Gujarat
17.3NEPNenpur (2)  07:14-07:14-  2606.2 4635mWRState Highway 3, Gujarat
17.4KANJKanij (3)  07:18-07:18-  2609.0 4639mWRBareja-Barejadi Rd, Gujarat
17.5BJDBarejadi (3)X  07:23-07:23-  2613.4 4642mWRBareja-Barejadi Rd, Gujarat
17.6GERGeratpur (2)X  07:28-07:28-  2616.8 4644mWRAhmadabad, Gujarat
17.7VTAVatva (4)  07:35-07:35-  2622.0 4649mWRDist. Ahmedabad 382445, Gujarat
17.8MANManinagar (2)O  07:41-07:41-  2626.8 4650mWRAhmadabad, Gujarat
17.9KKFKankaria  07:43-07:43-  2628.2 4648mWRAhmedabad, Gujarat
18ADI•Ahmedabad Junction (12)•  07:45+2---2630.0-51mWRAhmedabad, Gujarat
Scroll to Top
Scroll to Bottom